sensor_id;sensor_type;location;lat;lon;timestamp;pressure;altitude;pressure_sealevel;temperature;humidity
9695;BME280;4690;52.422;13.486;2023-11-19T00:14:19;101295.28;;;5.70;81.13
9695;BME280;4690;52.422;13.486;2023-11-19T00:16:45;101290.22;;;5.67;81.45
9695;BME280;4690;52.422;13.486;2023-11-19T00:19:11;101281.53;;;5.63;81.53
9695;BME280;4690;52.422;13.486;2023-11-19T00:21:37;101272.00;;;5.67;80.57
9695;BME280;4690;52.422;13.486;2023-11-19T00:24:03;101267.00;;;5.79;81.03
9695;BME280;4690;52.422;13.486;2023-11-19T00:26:30;101260.16;;;5.83;80.16
9695;BME280;4690;52.422;13.486;2023-11-19T00:28:55;101260.94;;;5.92;80.25
9695;BME280;4690;52.422;13.486;2023-11-19T00:31:21;101267.59;;;5.89;80.22
9695;BME280;4690;52.422;13.486;2023-11-19T00:33:47;101261.44;;;5.95;79.72
9695;BME280;4690;52.422;13.486;2023-11-19T00:36:13;101263.16;;;5.88;79.35
9695;BME280;4690;52.422;13.486;2023-11-19T00:38:39;101249.63;;;5.80;80.29
9695;BME280;4690;52.422;13.486;2023-11-19T00:41:04;101247.41;;;5.83;79.57
9695;BME280;4690;52.422;13.486;2023-11-19T00:43:30;101235.19;;;5.79;80.07
9695;BME280;4690;52.422;13.486;2023-11-19T00:45:56;101236.34;;;5.85;80.01
9695;BME280;4690;52.422;13.486;2023-11-19T00:48:21;101220.69;;;5.87;79.99
9695;BME280;4690;52.422;13.486;2023-11-19T00:50:47;101214.91;;;5.67;79.47
9695;BME280;4690;52.422;13.486;2023-11-19T00:53:13;101208.44;;;5.68;79.88
9695;BME280;4690;52.422;13.486;2023-11-19T00:55:39;101202.09;;;5.76;79.94
9695;BME280;4690;52.422;13.486;2023-11-19T00:58:04;101190.84;;;5.79;79.88
9695;BME280;4690;52.422;13.486;2023-11-19T01:00:30;101184.72;;;5.77;79.04
9695;BME280;4690;52.422;13.486;2023-11-19T01:02:58;101182.00;;;5.77;79.01
9695;BME280;4690;52.422;13.486;2023-11-19T01:05:23;101166.06;;;5.74;79.66
9695;BME280;4690;52.422;13.486;2023-11-19T01:07:49;101148.47;;;5.84;79.07
9695;BME280;4690;52.422;13.486;2023-11-19T01:10:15;101148.06;;;5.73;79.88
9695;BME280;4690;52.422;13.486;2023-11-19T01:12:42;101153.97;;;5.76;79.16
9695;BME280;4690;52.422;13.486;2023-11-19T01:15:08;101151.72;;;5.80;79.01
9695;BME280;4690;52.422;13.486;2023-11-19T01:17:34;101128.97;;;5.81;79.61
9695;BME280;4690;52.422;13.486;2023-11-19T01:20:00;101113.56;;;5.88;79.22
9695;BME280;4690;52.422;13.486;2023-11-19T01:22:25;101108.88;;;5.82;78.97
9695;BME280;4690;52.422;13.486;2023-11-19T01:24:51;101101.41;;;5.84;79.47
9695;BME280;4690;52.422;13.486;2023-11-19T01:27:17;101085.06;;;5.84;79.15
9695;BME280;4690;52.422;13.486;2023-11-19T01:29:43;101072.59;;;5.90;79.26
9695;BME280;4690;52.422;13.486;2023-11-19T01:32:09;101074.88;;;6.01;79.12
9695;BME280;4690;52.422;13.486;2023-11-19T01:34:34;101073.56;;;6.12;78.30
9695;BME280;4690;52.422;13.486;2023-11-19T01:37:01;101071.13;;;6.17;77.80
9695;BME280;4690;52.422;13.486;2023-11-19T01:39:27;101079.94;;;6.04;77.89
9695;BME280;4690;52.422;13.486;2023-11-19T01:41:52;101076.28;;;6.12;77.17
9695;BME280;4690;52.422;13.486;2023-11-19T01:44:20;101058.91;;;6.13;77.54
9695;BME280;4690;52.422;13.486;2023-11-19T01:46:47;101055.25;;;6.20;76.90
9695;BME280;4690;52.422;13.486;2023-11-19T01:49:16;101041.81;;;6.19;76.95
9695;BME280;4690;52.422;13.486;2023-11-19T01:51:43;101034.97;;;6.23;77.57
9695;BME280;4690;52.422;13.486;2023-11-19T01:54:10;101030.94;;;6.19;77.39
9695;BME280;4690;52.422;13.486;2023-11-19T01:56:40;101024.31;;;6.06;78.77
9695;BME280;4690;52.422;13.486;2023-11-19T01:59:09;101015.84;;;6.16;79.09
9695;BME280;4690;52.422;13.486;2023-11-19T02:01:36;101005.72;;;6.10;79.10
9695;BME280;4690;52.422;13.486;2023-11-19T02:04:07;100989.44;;;5.95;80.53
9695;BME280;4690;52.422;13.486;2023-11-19T02:06:37;101000.00;;;5.90;81.44
9695;BME280;4690;52.422;13.486;2023-11-19T02:09:06;100998.66;;;5.94;81.35
9695;BME280;4690;52.422;13.486;2023-11-19T02:11:34;100979.84;;;5.84;81.59
9695;BME280;4690;52.422;13.486;2023-11-19T02:14:00;100973.56;;;5.84;82.59
9695;BME280;4690;52.422;13.486;2023-11-19T02:16:26;100959.53;;;5.80;83.22
9695;BME280;4690;52.422;13.486;2023-11-19T02:18:53;100937.38;;;5.83;82.49
9695;BME280;4690;52.422;13.486;2023-11-19T02:21:19;100927.34;;;5.84;82.57
9695;BME280;4690;52.422;13.486;2023-11-19T02:23:45;100905.88;;;5.74;82.79
9695;BME280;4690;52.422;13.486;2023-11-19T02:26:25;100915.41;;;5.85;82.44
9695;BME280;4690;52.422;13.486;2023-11-19T02:28:53;100907.25;;;5.85;83.41
9695;BME280;4690;52.422;13.486;2023-11-19T02:31:19;100915.25;;;5.87;82.80
9695;BME280;4690;52.422;13.486;2023-11-19T02:33:45;100901.44;;;5.88;82.86
9695;BME280;4690;52.422;13.486;2023-11-19T02:36:11;100893.06;;;5.68;83.30
9695;BME280;4690;52.422;13.486;2023-11-19T02:38:37;100885.25;;;5.80;83.72
9695;BME280;4690;52.422;13.486;2023-11-19T02:41:04;100880.47;;;5.82;82.54
9695;BME280;4690;52.422;13.486;2023-11-19T02:43:34;100875.56;;;5.92;82.72
9695;BME280;4690;52.422;13.486;2023-11-19T02:46:04;100878.19;;;6.00;82.09
9695;BME280;4690;52.422;13.486;2023-11-19T02:48:35;100878.66;;;5.89;82.28
9695;BME280;4690;52.422;13.486;2023-11-19T02:51:02;100877.25;;;5.93;82.45
9695;BME280;4690;52.422;13.486;2023-11-19T02:53:35;100865.59;;;5.99;81.45
9695;BME280;4690;52.422;13.486;2023-11-19T02:56:02;100857.91;;;6.03;81.40
9695;BME280;4690;52.422;13.486;2023-11-19T02:58:37;100842.16;;;5.98;81.13
9695;BME280;4690;52.422;13.486;2023-11-19T03:01:04;100830.63;;;5.96;81.42
9695;BME280;4690;52.422;13.486;2023-11-19T03:03:38;100813.41;;;5.89;82.20
9695;BME280;4690;52.422;13.486;2023-11-19T03:06:06;100811.28;;;5.91;82.50
9695;BME280;4690;52.422;13.486;2023-11-19T03:08:35;100809.97;;;6.02;81.59
9695;BME280;4690;52.422;13.486;2023-11-19T03:11:01;100811.78;;;6.16;81.23
9695;BME280;4690;52.422;13.486;2023-11-19T03:13:27;100801.22;;;6.06;81.23
9695;BME280;4690;52.422;13.486;2023-11-19T03:15:53;100801.94;;;6.15;81.36
9695;BME280;4690;52.422;13.486;2023-11-19T03:18:22;100792.09;;;6.14;80.66
9695;BME280;4690;52.422;13.486;2023-11-19T03:20:47;100801.88;;;6.09;81.86
9695;BME280;4690;52.422;13.486;2023-11-19T03:23:13;100797.41;;;6.01;82.11
9695;BME280;4690;52.422;13.486;2023-11-19T03:25:39;100790.66;;;5.97;82.56
9695;BME280;4690;52.422;13.486;2023-11-19T03:28:05;100794.50;;;5.81;83.13
9695;BME280;4690;52.422;13.486;2023-11-19T03:30:32;100797.69;;;5.91;83.30
9695;BME280;4690;52.422;13.486;2023-11-19T03:32:59;100794.81;;;6.14;82.01
9695;BME280;4690;52.422;13.486;2023-11-19T03:35:28;100800.44;;;6.13;82.32
9695;BME280;4690;52.422;13.486;2023-11-19T03:37:54;100791.22;;;6.14;82.34
9695;BME280;4690;52.422;13.486;2023-11-19T03:40:19;100808.28;;;6.22;82.78
9695;BME280;4690;52.422;13.486;2023-11-19T03:42:46;100788.44;;;6.28;83.12
9695;BME280;4690;52.422;13.486;2023-11-19T03:45:12;100793.88;;;6.28;83.50
9695;BME280;4690;52.422;13.486;2023-11-19T03:47:38;100775.28;;;6.32;83.69
9695;BME280;4690;52.422;13.486;2023-11-19T03:50:05;100760.59;;;6.26;85.10
9695;BME280;4690;52.422;13.486;2023-11-19T03:52:31;100763.25;;;6.20;85.62
9695;BME280;4690;52.422;13.486;2023-11-19T03:54:57;100749.84;;;6.18;86.54
9695;BME280;4690;52.422;13.486;2023-11-19T03:57:23;100740.09;;;6.02;88.59
9695;BME280;4690;52.422;13.486;2023-11-19T03:59:49;100739.75;;;5.91;90.02
9695;BME280;4690;52.422;13.486;2023-11-19T04:02:16;100735.50;;;5.81;91.56
9695;BME280;4690;52.422;13.486;2023-11-19T04:04:42;100742.38;;;5.77;93.29
9695;BME280;4690;52.422;13.486;2023-11-19T04:07:08;100722.75;;;5.82;93.65
9695;BME280;4690;52.422;13.486;2023-11-19T04:09:33;100707.09;;;5.62;94.33
9695;BME280;4690;52.422;13.486;2023-11-19T04:12:00;100686.84;;;5.65;94.81
9695;BME280;4690;52.422;13.486;2023-11-19T04:14:26;100682.13;;;5.52;95.70
9695;BME280;4690;52.422;13.486;2023-11-19T04:16:53;100664.91;;;5.45;97.11
9695;BME280;4690;52.422;13.486;2023-11-19T04:19:19;100654.50;;;5.49;96.65
9695;BME280;4690;52.422;13.486;2023-11-19T04:21:45;100663.25;;;5.44;97.94
9695;BME280;4690;52.422;13.486;2023-11-19T04:24:13;100657.22;;;5.49;98.19
9695;BME280;4690;52.422;13.486;2023-11-19T04:26:44;100639.22;;;5.48;97.79
9695;BME280;4690;52.422;13.486;2023-11-19T04:29:15;100630.69;;;5.51;97.93
9695;BME280;4690;52.422;13.486;2023-11-19T04:31:45;100628.34;;;5.48;98.10
9695;BME280;4690;52.422;13.486;2023-11-19T04:34:12;100625.50;;;5.56;98.42
9695;BME280;4690;52.422;13.486;2023-11-19T04:36:38;100620.78;;;5.43;99.48
9695;BME280;4690;52.422;13.486;2023-11-19T04:39:05;100610.72;;;5.37;99.74
9695;BME280;4690;52.422;13.486;2023-11-19T04:41:46;100606.31;;;5.36;99.80
9695;BME280;4690;52.422;13.486;2023-11-19T04:44:13;100614.34;;;5.44;99.89
9695;BME280;4690;52.422;13.486;2023-11-19T04:46:39;100605.00;;;5.53;99.88
9695;BME280;4690;52.422;13.486;2023-11-19T04:49:04;100607.97;;;5.58;99.86
9695;BME280;4690;52.422;13.486;2023-11-19T04:51:30;100631.22;;;5.68;100.00
9695;BME280;4690;52.422;13.486;2023-11-19T04:53:56;100644.25;;;5.72;99.85
9695;BME280;4690;52.422;13.486;2023-11-19T04:56:22;100646.72;;;5.67;99.47
9695;BME280;4690;52.422;13.486;2023-11-19T04:58:48;100641.16;;;5.82;99.35
9695;BME280;4690;52.422;13.486;2023-11-19T05:01:15;100624.00;;;5.81;98.59
9695;BME280;4690;52.422;13.486;2023-11-19T05:03:44;100626.75;;;5.88;98.87
9695;BME280;4690;52.422;13.486;2023-11-19T05:06:11;100622.28;;;5.74;98.61
9695;BME280;4690;52.422;13.486;2023-11-19T05:08:36;100596.09;;;5.66;99.28
9695;BME280;4690;52.422;13.486;2023-11-19T05:11:02;100587.09;;;5.66;99.20
9695;BME280;4690;52.422;13.486;2023-11-19T05:13:29;100576.28;;;5.72;99.74
9695;BME280;4690;52.422;13.486;2023-11-19T05:15:55;100567.09;;;5.80;99.51
9695;BME280;4690;52.422;13.486;2023-11-19T05:18:20;100577.75;;;5.75;99.98
9695;BME280;4690;52.422;13.486;2023-11-19T05:20:46;100563.66;;;5.65;100.00
9695;BME280;4690;52.422;13.486;2023-11-19T05:23:12;100544.47;;;5.73;100.00
9695;BME280;4690;52.422;13.486;2023-11-19T05:25:38;100559.44;;;5.55;100.00
9695;BME280;4690;52.422;13.486;2023-11-19T05:28:03;100548.44;;;5.70;100.00
9695;BME280;4690;52.422;13.486;2023-11-19T05:30:29;100545.88;;;5.62;100.00
9695;BME280;4690;52.422;13.486;2023-11-19T05:32:55;100534.56;;;5.58;100.00
9695;BME280;4690;52.422;13.486;2023-11-19T05:35:21;100538.38;;;5.64;100.00
9695;BME280;4690;52.422;13.486;2023-11-19T05:37:46;100525.59;;;5.58;100.00
9695;BME280;4690;52.422;13.486;2023-11-19T05:40:12;100538.09;;;5.52;100.00
9695;BME280;4690;52.422;13.486;2023-11-19T05:42:41;100511.22;;;5.36;100.00
9695;BME280;4690;52.422;13.486;2023-11-19T05:45:10;100514.59;;;5.38;100.00
9695;BME280;4690;52.422;13.486;2023-11-19T05:47:37;100504.50;;;5.32;100.00
9695;BME280;4690;52.422;13.486;2023-11-19T05:50:03;100506.09;;;5.20;100.00
9695;BME280;4690;52.422;13.486;2023-11-19T05:52:31;100511.94;;;5.23;100.00
9695;BME280;4690;52.422;13.486;2023-11-19T05:55:00;100500.34;;;5.36;100.00
9695;BME280;4690;52.422;13.486;2023-11-19T05:57:30;100488.88;;;5.40;100.00
9695;BME280;4690;52.422;13.486;2023-11-19T05:59:55;100493.53;;;5.47;100.00
9695;BME280;4690;52.422;13.486;2023-11-19T06:02:21;100487.31;;;5.59;100.00
9695;BME280;4690;52.422;13.486;2023-11-19T06:04:47;100472.47;;;5.62;100.00
9695;BME280;4690;52.422;13.486;2023-11-19T06:07:14;100465.38;;;5.61;100.00
9695;BME280;4690;52.422;13.486;2023-11-19T06:09:41;100479.56;;;5.56;100.00
9695;BME280;4690;52.422;13.486;2023-11-19T06:12:07;100468.69;;;5.56;100.00
9695;BME280;4690;52.422;13.486;2023-11-19T06:14:33;100458.47;;;5.58;100.00
9695;BME280;4690;52.422;13.486;2023-11-19T06:16:59;100453.88;;;5.59;100.00
9695;BME280;4690;52.422;13.486;2023-11-19T06:19:25;100455.53;;;5.60;100.00
9695;BME280;4690;52.422;13.486;2023-11-19T06:21:51;100444.00;;;5.51;100.00
9695;BME280;4690;52.422;13.486;2023-11-19T06:24:16;100435.31;;;5.69;100.00
9695;BME280;4690;52.422;13.486;2023-11-19T06:26:42;100448.03;;;5.62;100.00
9695;BME280;4690;52.422;13.486;2023-11-19T06:29:08;100433.03;;;5.73;100.00
9695;BME280;4690;52.422;13.486;2023-11-19T06:31:34;100406.91;;;5.78;100.00
9695;BME280;4690;52.422;13.486;2023-11-19T06:34:00;100403.72;;;5.68;100.00
9695;BME280;4690;52.422;13.486;2023-11-19T06:36:25;100399.53;;;5.66;100.00
9695;BME280;4690;52.422;13.486;2023-11-19T06:38:52;100426.97;;;5.77;100.00
9695;BME280;4690;52.422;13.486;2023-11-19T06:41:18;100422.09;;;5.59;100.00
9695;BME280;4690;52.422;13.486;2023-11-19T06:43:43;100424.38;;;5.56;100.00
9695;BME280;4690;52.422;13.486;2023-11-19T06:46:17;100418.13;;;5.62;100.00
9695;BME280;4690;52.422;13.486;2023-11-19T06:48:43;100396.38;;;5.69;100.00
9695;BME280;4690;52.422;13.486;2023-11-19T06:51:13;100391.38;;;5.66;100.00
9695;BME280;4690;52.422;13.486;2023-11-19T06:53:39;100372.13;;;5.60;100.00
9695;BME280;4690;52.422;13.486;2023-11-19T06:56:25;100385.09;;;5.58;100.00
9695;BME280;4690;52.422;13.486;2023-11-19T06:58:51;100383.00;;;5.60;100.00
9695;BME280;4690;52.422;13.486;2023-11-19T07:01:17;100377.22;;;5.83;100.00
9695;BME280;4690;52.422;13.486;2023-11-19T07:03:47;100383.66;;;5.76;100.00
9695;BME280;4690;52.422;13.486;2023-11-19T07:06:13;100375.94;;;5.73;100.00
9695;BME280;4690;52.422;13.486;2023-11-19T07:08:41;100377.81;;;5.79;100.00
9695;BME280;4690;52.422;13.486;2023-11-19T07:11:11;100378.88;;;5.78;100.00
9695;BME280;4690;52.422;13.486;2023-11-19T07:13:37;100385.31;;;5.70;100.00
9695;BME280;4690;52.422;13.486;2023-11-19T07:16:03;100380.56;;;5.85;100.00
9695;BME280;4690;52.422;13.486;2023-11-19T07:18:29;100382.94;;;5.95;100.00
9695;BME280;4690;52.422;13.486;2023-11-19T07:20:55;100391.66;;;5.84;100.00
9695;BME280;4690;52.422;13.486;2023-11-19T07:23:21;100393.59;;;5.97;100.00
9695;BME280;4690;52.422;13.486;2023-11-19T07:25:47;100383.56;;;6.11;100.00
9695;BME280;4690;52.422;13.486;2023-11-19T07:28:13;100387.53;;;6.01;100.00
9695;BME280;4690;52.422;13.486;2023-11-19T07:30:40;100375.97;;;5.93;100.00
9695;BME280;4690;52.422;13.486;2023-11-19T07:33:05;100384.63;;;6.03;100.00
9695;BME280;4690;52.422;13.486;2023-11-19T07:35:32;100384.81;;;6.08;100.00
9695;BME280;4690;52.422;13.486;2023-11-19T07:37:58;100379.78;;;6.05;100.00
9695;BME280;4690;52.422;13.486;2023-11-19T07:40:24;100379.63;;;6.26;100.00
9695;BME280;4690;52.422;13.486;2023-11-19T07:42:50;100377.75;;;6.40;100.00
9695;BME280;4690;52.422;13.486;2023-11-19T07:45:17;100381.28;;;6.27;100.00
9695;BME280;4690;52.422;13.486;2023-11-19T07:47:44;100379.41;;;6.41;100.00
9695;BME280;4690;52.422;13.486;2023-11-19T07:50:12;100378.59;;;6.41;100.00
9695;BME280;4690;52.422;13.486;2023-11-19T07:52:39;100399.53;;;6.47;100.00
9695;BME280;4690;52.422;13.486;2023-11-19T07:55:05;100395.13;;;6.53;100.00
9695;BME280;4690;52.422;13.486;2023-11-19T07:57:31;100383.19;;;6.67;100.00
9695;BME280;4690;52.422;13.486;2023-11-19T07:59:57;100384.06;;;6.67;100.00
9695;BME280;4690;52.422;13.486;2023-11-19T08:02:23;100378.16;;;6.64;100.00
9695;BME280;4690;52.422;13.486;2023-11-19T08:04:50;100372.31;;;6.54;100.00
9695;BME280;4690;52.422;13.486;2023-11-19T08:07:21;100380.50;;;6.54;100.00
9695;BME280;4690;52.422;13.486;2023-11-19T08:09:47;100376.28;;;6.58;100.00
9695;BME280;4690;52.422;13.486;2023-11-19T08:12:13;100384.88;;;6.55;100.00
9695;BME280;4690;52.422;13.486;2023-11-19T08:14:43;100376.69;;;6.74;100.00
9695;BME280;4690;52.422;13.486;2023-11-19T08:17:10;100371.47;;;6.73;100.00
9695;BME280;4690;52.422;13.486;2023-11-19T08:19:35;100374.19;;;6.80;100.00
9695;BME280;4690;52.422;13.486;2023-11-19T08:22:01;100365.59;;;6.83;100.00
9695;BME280;4690;52.422;13.486;2023-11-19T08:24:28;100352.16;;;6.81;100.00
9695;BME280;4690;52.422;13.486;2023-11-19T08:26:53;100354.25;;;6.92;100.00
9695;BME280;4690;52.422;13.486;2023-11-19T08:29:19;100369.75;;;7.05;100.00
9695;BME280;4690;52.422;13.486;2023-11-19T08:31:45;100362.41;;;7.06;100.00
9695;BME280;4690;52.422;13.486;2023-11-19T08:34:11;100356.31;;;7.04;100.00
9695;BME280;4690;52.422;13.486;2023-11-19T08:36:37;100358.00;;;6.98;100.00
9695;BME280;4690;52.422;13.486;2023-11-19T08:39:03;100355.66;;;7.22;100.00
9695;BME280;4690;52.422;13.486;2023-11-19T08:41:29;100341.75;;;7.36;100.00
9695;BME280;4690;52.422;13.486;2023-11-19T08:43:55;100333.69;;;7.61;100.00
9695;BME280;4690;52.422;13.486;2023-11-19T08:46:20;100334.31;;;7.57;100.00
9695;BME280;4690;52.422;13.486;2023-11-19T08:48:46;100336.19;;;7.63;100.00
9695;BME280;4690;52.422;13.486;2023-11-19T08:51:15;100341.72;;;7.50;100.00
9695;BME280;4690;52.422;13.486;2023-11-19T08:53:40;100342.50;;;7.57;100.00
9695;BME280;4690;52.422;13.486;2023-11-19T08:56:07;100336.81;;;7.65;100.00
9695;BME280;4690;52.422;13.486;2023-11-19T08:58:33;100339.31;;;7.67;100.00
9695;BME280;4690;52.422;13.486;2023-11-19T09:00:59;100338.84;;;7.76;100.00
9695;BME280;4690;52.422;13.486;2023-11-19T09:03:24;100360.41;;;7.84;100.00
9695;BME280;4690;52.422;13.486;2023-11-19T09:05:55;100350.31;;;7.92;100.00
9695;BME280;4690;52.422;13.486;2023-11-19T09:08:21;100348.47;;;7.85;100.00
9695;BME280;4690;52.422;13.486;2023-11-19T09:10:46;100345.00;;;7.97;100.00
9695;BME280;4690;52.422;13.486;2023-11-19T09:13:12;100331.34;;;8.03;100.00
9695;BME280;4690;52.422;13.486;2023-11-19T09:15:38;100339.53;;;7.97;100.00
9695;BME280;4690;52.422;13.486;2023-11-19T09:18:04;100326.19;;;8.14;100.00
9695;BME280;4690;52.422;13.486;2023-11-19T09:20:30;100331.47;;;8.15;100.00
9695;BME280;4690;52.422;13.486;2023-11-19T09:23:03;100337.41;;;8.05;100.00
9695;BME280;4690;52.422;13.486;2023-11-19T09:25:29;100333.91;;;8.23;100.00
9695;BME280;4690;52.422;13.486;2023-11-19T09:27:54;100330.44;;;8.41;100.00
9695;BME280;4690;52.422;13.486;2023-11-19T09:30:20;100331.44;;;8.47;100.00
9695;BME280;4690;52.422;13.486;2023-11-19T09:32:46;100325.31;;;8.51;100.00
9695;BME280;4690;52.422;13.486;2023-11-19T09:35:11;100333.06;;;8.55;100.00
9695;BME280;4690;52.422;13.486;2023-11-19T09:37:40;100332.88;;;8.74;100.00
9695;BME280;4690;52.422;13.486;2023-11-19T09:40:07;100332.44;;;8.96;100.00
9695;BME280;4690;52.422;13.486;2023-11-19T09:42:44;100325.63;;;9.05;100.00
9695;BME280;4690;52.422;13.486;2023-11-19T09:45:16;100329.66;;;9.21;100.00
9695;BME280;4690;52.422;13.486;2023-11-19T09:47:45;100341.69;;;9.32;100.00
9695;BME280;4690;52.422;13.486;2023-11-19T09:50:18;100321.25;;;9.53;100.00
9695;BME280;4690;52.422;13.486;2023-11-19T09:52:47;100324.09;;;9.76;100.00
9695;BME280;4690;52.422;13.486;2023-11-19T09:55:13;100315.09;;;9.87;100.00
9695;BME280;4690;52.422;13.486;2023-11-19T09:57:40;100314.94;;;9.82;100.00
9695;BME280;4690;52.422;13.486;2023-11-19T10:00:08;100315.50;;;10.03;100.00
9695;BME280;4690;52.422;13.486;2023-11-19T10:02:37;100317.47;;;10.26;100.00
9695;BME280;4690;52.422;13.486;2023-11-19T10:05:12;100312.84;;;10.38;100.00
9695;BME280;4690;52.422;13.486;2023-11-19T10:07:39;100315.84;;;10.37;100.00
9695;BME280;4690;52.422;13.486;2023-11-19T10:10:05;100315.25;;;10.35;100.00
9695;BME280;4690;52.422;13.486;2023-11-19T10:12:31;100321.31;;;10.37;100.00
9695;BME280;4690;52.422;13.486;2023-11-19T10:14:58;100313.47;;;10.40;100.00
9695;BME280;4690;52.422;13.486;2023-11-19T10:17:28;100311.81;;;10.51;100.00
9695;BME280;4690;52.422;13.486;2023-11-19T10:19:55;100313.47;;;10.64;100.00
9695;BME280;4690;52.422;13.486;2023-11-19T10:22:23;100310.03;;;10.57;100.00
9695;BME280;4690;52.422;13.486;2023-11-19T10:24:50;100318.25;;;10.57;100.00
9695;BME280;4690;52.422;13.486;2023-11-19T10:27:15;100311.44;;;10.83;100.00
9695;BME280;4690;52.422;13.486;2023-11-19T10:29:48;100313.00;;;10.90;100.00
9695;BME280;4690;52.422;13.486;2023-11-19T10:32:14;100313.72;;;10.86;100.00
9695;BME280;4690;52.422;13.486;2023-11-19T10:34:40;100306.56;;;10.85;100.00
9695;BME280;4690;52.422;13.486;2023-11-19T10:37:07;100305.00;;;11.12;100.00
9695;BME280;4690;52.422;13.486;2023-11-19T10:39:53;100301.00;;;11.20;100.00
9695;BME280;4690;52.422;13.486;2023-11-19T10:42:22;100309.34;;;11.25;100.00
9695;BME280;4690;52.422;13.486;2023-11-19T10:44:48;100301.34;;;11.35;100.00
9695;BME280;4690;52.422;13.486;2023-11-19T10:47:14;100297.34;;;11.55;100.00
9695;BME280;4690;52.422;13.486;2023-11-19T10:49:43;100298.19;;;11.55;100.00
9695;BME280;4690;52.422;13.486;2023-11-19T10:52:09;100293.41;;;11.51;100.00
9695;BME280;4690;52.422;13.486;2023-11-19T10:54:35;100285.44;;;11.49;100.00
9695;BME280;4690;52.422;13.486;2023-11-19T10:57:02;100290.22;;;11.71;100.00
9695;BME280;4690;52.422;13.486;2023-11-19T10:59:31;100276.94;;;11.79;100.00
9695;BME280;4690;52.422;13.486;2023-11-19T11:02:03;100275.09;;;11.68;100.00
9695;BME280;4690;52.422;13.486;2023-11-19T11:04:37;100278.63;;;11.80;100.00
9695;BME280;4690;52.422;13.486;2023-11-19T11:07:06;100278.03;;;11.78;100.00
9695;BME280;4690;52.422;13.486;2023-11-19T11:09:32;100272.31;;;11.80;100.00
9695;BME280;4690;52.422;13.486;2023-11-19T11:11:59;100285.72;;;11.93;100.00
9695;BME280;4690;52.422;13.486;2023-11-19T11:14:27;100272.63;;;12.12;100.00
9695;BME280;4690;52.422;13.486;2023-11-19T11:16:55;100274.22;;;12.08;100.00
9695;BME280;4690;52.422;13.486;2023-11-19T11:19:22;100284.50;;;12.01;99.84
9695;BME280;4690;52.422;13.486;2023-11-19T11:21:55;100274.19;;;11.91;100.00
9695;BME280;4690;52.422;13.486;2023-11-19T11:27:38;100276.06;;;11.91;99.92
9695;BME280;4690;52.422;13.486;2023-11-19T11:30:43;100281.84;;;11.77;100.00
9695;BME280;4690;52.422;13.486;2023-11-19T11:36:22;100287.34;;;11.77;100.00
9695;BME280;4690;52.422;13.486;2023-11-19T11:38:49;100284.81;;;11.87;100.00
9695;BME280;4690;52.422;13.486;2023-11-19T11:41:23;100286.25;;;11.78;100.00
9695;BME280;4690;52.422;13.486;2023-11-19T11:43:51;100289.28;;;11.65;100.00
9695;BME280;4690;52.422;13.486;2023-11-19T11:49:06;100277.59;;;11.98;100.00
9695;BME280;4690;52.422;13.486;2023-11-19T11:54:11;100264.44;;;12.51;100.00
9695;BME280;4690;52.422;13.486;2023-11-19T11:57:06;100254.91;;;12.75;98.33
9695;BME280;4690;52.422;13.486;2023-11-19T12:02:09;100250.78;;;13.17;97.52
9695;BME280;4690;52.422;13.486;2023-11-19T12:04:36;100253.09;;;13.47;95.58
9695;BME280;4690;52.422;13.486;2023-11-19T12:07:12;100254.28;;;13.29;94.26
9695;BME280;4690;52.422;13.486;2023-11-19T12:09:45;100256.53;;;13.15;94.47
9695;BME280;4690;52.422;13.486;2023-11-19T12:12:23;100250.78;;;13.17;94.31
9695;BME280;4690;52.422;13.486;2023-11-19T12:20:05;100258.44;;;12.54;96.88
9695;BME280;4690;52.422;13.486;2023-11-19T12:22:42;100255.09;;;12.69;97.17
9695;BME280;4690;52.422;13.486;2023-11-19T12:25:10;100256.19;;;12.68;97.08
9695;BME280;4690;52.422;13.486;2023-11-19T12:27:41;100252.59;;;12.67;96.88
9695;BME280;4690;52.422;13.486;2023-11-19T12:30:07;100261.03;;;12.44;97.50
9695;BME280;4690;52.422;13.486;2023-11-19T12:32:45;100258.19;;;12.39;98.30
9695;BME280;4690;52.422;13.486;2023-11-19T12:35:12;100261.28;;;12.59;97.86
9695;BME280;4690;52.422;13.486;2023-11-19T12:40:16;100255.91;;;12.69;96.69
9695;BME280;4690;52.422;13.486;2023-11-19T12:42:46;100258.72;;;12.74;96.13
9695;BME280;4690;52.422;13.486;2023-11-19T12:45:13;100254.66;;;12.77;95.59
9695;BME280;4690;52.422;13.486;2023-11-19T12:47:43;100254.66;;;12.77;95.76
9695;BME280;4690;52.422;13.486;2023-11-19T12:50:10;100250.31;;;12.42;95.89
9695;BME280;4690;52.422;13.486;2023-11-19T12:52:39;100247.38;;;12.49;96.45
9695;BME280;4690;52.422;13.486;2023-11-19T12:57:50;100257.63;;;12.37;96.29
9695;BME280;4690;52.422;13.486;2023-11-19T13:00:22;100261.69;;;12.51;96.27
9695;BME280;4690;52.422;13.486;2023-11-19T13:02:53;100257.34;;;12.55;94.79
9695;BME280;4690;52.422;13.486;2023-11-19T13:05:27;100255.28;;;12.45;93.46
9695;BME280;4690;52.422;13.486;2023-11-19T13:08:10;100266.94;;;12.52;93.79
9695;BME280;4690;52.422;13.486;2023-11-19T13:10:52;100263.28;;;12.47;93.36
9695;BME280;4690;52.422;13.486;2023-11-19T13:13:21;100255.03;;;12.47;93.16
9695;BME280;4690;52.422;13.486;2023-11-19T13:15:46;100253.69;;;12.49;93.04
9695;BME280;4690;52.422;13.486;2023-11-19T13:18:13;100255.91;;;12.69;92.90
9695;BME280;4690;52.422;13.486;2023-11-19T13:20:39;100260.34;;;12.70;91.26
9695;BME280;4690;52.422;13.486;2023-11-19T13:23:06;100259.00;;;12.73;89.97
9695;BME280;4690;52.422;13.486;2023-11-19T13:25:32;100258.19;;;12.55;90.67
9695;BME280;4690;52.422;13.486;2023-11-19T13:27:59;100249.47;;;12.59;90.99
9695;BME280;4690;52.422;13.486;2023-11-19T13:30:26;100249.34;;;12.70;91.17
9695;BME280;4690;52.422;13.486;2023-11-19T13:32:52;100249.94;;;12.94;90.25
9695;BME280;4690;52.422;13.486;2023-11-19T13:35:20;100251.41;;;13.02;88.46
9695;BME280;4690;52.422;13.486;2023-11-19T13:37:48;100252.13;;;12.92;88.48
9695;BME280;4690;52.422;13.486;2023-11-19T13:40:13;100250.59;;;13.01;88.16
9695;BME280;4690;52.422;13.486;2023-11-19T13:42:42;100242.44;;;13.12;86.90